sensor_id;sensor_type;location;lat;lon;timestamp;pressure;altitude;pressure_sealevel;temperature;humidity
78841;BME280;68379;47.190;27.558;2023-08-08T00:00:11;99429.94;;;16.96;69.31
78841;BME280;68379;47.190;27.558;2023-08-08T00:03:00;99431.52;;;16.94;69.20
78841;BME280;68379;47.190;27.558;2023-08-08T00:05:30;99437.39;;;16.89;69.10
78841;BME280;68379;47.190;27.558;2023-08-08T00:07:59;99437.40;;;16.84;69.44
78841;BME280;68379;47.190;27.558;2023-08-08T00:10:28;99439.34;;;16.79;69.71
78841;BME280;68379;47.190;27.558;2023-08-08T00:12:57;99443.88;;;16.76;70.33
78841;BME280;68379;47.190;27.558;2023-08-08T00:15:26;99445.67;;;16.68;70.44
78841;BME280;68379;47.190;27.558;2023-08-08T00:17:56;99444.29;;;16.62;71.80
78841;BME280;68379;47.190;27.558;2023-08-08T00:20:25;99445.13;;;16.60;71.52
78841;BME280;68379;47.190;27.558;2023-08-08T00:22:54;99446.93;;;16.57;71.12
78841;BME280;68379;47.190;27.558;2023-08-08T00:25:23;99443.09;;;16.56;71.38
78841;BME280;68379;47.190;27.558;2023-08-08T00:27:52;99441.08;;;16.55;71.88
78841;BME280;68379;47.190;27.558;2023-08-08T00:30:22;99434.70;;;16.54;72.13
78841;BME280;68379;47.190;27.558;2023-08-08T00:32:51;99431.29;;;16.54;71.86
78841;BME280;68379;47.190;27.558;2023-08-08T00:35:20;99430.30;;;16.55;72.14
78841;BME280;68379;47.190;27.558;2023-08-08T00:37:50;99423.73;;;16.58;72.08
78841;BME280;68379;47.190;27.558;2023-08-08T00:40:19;99429.83;;;16.60;71.67
78841;BME280;68379;47.190;27.558;2023-08-08T00:42:48;99430.69;;;16.60;71.35
78841;BME280;68379;47.190;27.558;2023-08-08T00:45:18;99430.20;;;16.59;71.01
78841;BME280;68379;47.190;27.558;2023-08-08T00:47:47;99436.13;;;16.59;70.89
78841;BME280;68379;47.190;27.558;2023-08-08T00:50:16;99439.56;;;16.58;70.78
78841;BME280;68379;47.190;27.558;2023-08-08T00:52:46;99432.31;;;16.57;70.53
78841;BME280;68379;47.190;27.558;2023-08-08T00:55:16;99426.11;;;16.57;70.05
78841;BME280;68379;47.190;27.558;2023-08-08T00:57:45;99422.58;;;16.56;69.76
78841;BME280;68379;47.190;27.558;2023-08-08T01:00:16;99422.73;;;16.56;69.64
78841;BME280;68379;47.190;27.558;2023-08-08T01:02:45;99423.27;;;16.57;69.11
78841;BME280;68379;47.190;27.558;2023-08-08T01:05:14;99425.80;;;16.56;68.82
78841;BME280;68379;47.190;27.558;2023-08-08T01:07:51;99428.60;;;16.57;68.48
78841;BME280;68379;47.190;27.558;2023-08-08T01:10:24;99424.49;;;16.57;68.58
78841;BME280;68379;47.190;27.558;2023-08-08T01:12:54;99422.90;;;16.57;68.10
78841;BME280;68379;47.190;27.558;2023-08-08T01:15:25;99432.52;;;16.57;67.71
78841;BME280;68379;47.190;27.558;2023-08-08T01:17:55;99442.00;;;16.62;67.35
78841;BME280;68379;47.190;27.558;2023-08-08T01:20:25;99450.02;;;16.64;67.22
78841;BME280;68379;47.190;27.558;2023-08-08T01:23:02;99462.77;;;16.69;67.06
78841;BME280;68379;47.190;27.558;2023-08-08T01:25:33;99468.61;;;16.72;66.89
78841;BME280;68379;47.190;27.558;2023-08-08T01:28:04;99465.58;;;16.74;66.89
78841;BME280;68379;47.190;27.558;2023-08-08T01:30:34;99466.77;;;16.77;66.73
78841;BME280;68379;47.190;27.558;2023-08-08T01:33:04;99470.93;;;16.79;66.63
78841;BME280;68379;47.190;27.558;2023-08-08T01:35:37;99481.39;;;16.81;66.46
78841;BME280;68379;47.190;27.558;2023-08-08T01:38:13;99488.11;;;16.81;66.38
78841;BME280;68379;47.190;27.558;2023-08-08T01:40:44;99498.23;;;16.82;66.34
78841;BME280;68379;47.190;27.558;2023-08-08T01:43:15;99509.86;;;16.84;66.26
78841;BME280;68379;47.190;27.558;2023-08-08T01:45:47;99519.21;;;16.83;66.30
78841;BME280;68379;47.190;27.558;2023-08-08T01:48:16;99519.08;;;16.82;66.16
78841;BME280;68379;47.190;27.558;2023-08-08T01:50:45;99523.05;;;16.81;66.11
78841;BME280;68379;47.190;27.558;2023-08-08T01:53:15;99526.85;;;16.81;66.22
78841;BME280;68379;47.190;27.558;2023-08-08T01:55:44;99530.11;;;16.80;66.08
78841;BME280;68379;47.190;27.558;2023-08-08T01:58:13;99530.52;;;16.79;66.14
78841;BME280;68379;47.190;27.558;2023-08-08T02:00:42;99532.34;;;16.79;66.13
78841;BME280;68379;47.190;27.558;2023-08-08T02:03:13;99536.36;;;16.77;66.29
78841;BME280;68379;47.190;27.558;2023-08-08T02:05:42;99538.83;;;16.75;66.39
78841;BME280;68379;47.190;27.558;2023-08-08T02:08:11;99535.06;;;16.73;66.56
78841;BME280;68379;47.190;27.558;2023-08-08T02:10:41;99529.86;;;16.71;66.76
78841;BME280;68379;47.190;27.558;2023-08-08T02:13:10;99527.96;;;16.70;66.78
78841;BME280;68379;47.190;27.558;2023-08-08T02:15:39;99526.15;;;16.70;66.78
78841;BME280;68379;47.190;27.558;2023-08-08T02:18:08;99533.49;;;16.70;66.80
78841;BME280;68379;47.190;27.558;2023-08-08T02:20:39;99533.67;;;16.70;66.89
78841;BME280;68379;47.190;27.558;2023-08-08T02:23:08;99535.12;;;16.69;66.91
78841;BME280;68379;47.190;27.558;2023-08-08T02:25:37;99540.49;;;16.69;67.01
78841;BME280;68379;47.190;27.558;2023-08-08T02:28:07;99537.98;;;16.69;66.92
78841;BME280;68379;47.190;27.558;2023-08-08T02:30:36;99533.57;;;16.69;67.00
78841;BME280;68379;47.190;27.558;2023-08-08T02:33:06;99532.56;;;16.68;67.06
78841;BME280;68379;47.190;27.558;2023-08-08T02:35:37;99533.15;;;16.67;67.32
78841;BME280;68379;47.190;27.558;2023-08-08T02:38:06;99533.70;;;16.64;67.47
78841;BME280;68379;47.190;27.558;2023-08-08T02:40:35;99534.46;;;16.61;67.44
78841;BME280;68379;47.190;27.558;2023-08-08T02:43:07;99535.12;;;16.59;67.62
78841;BME280;68379;47.190;27.558;2023-08-08T02:45:37;99546.36;;;16.59;67.76
78841;BME280;68379;47.190;27.558;2023-08-08T02:48:07;99555.48;;;16.58;67.51
78841;BME280;68379;47.190;27.558;2023-08-08T02:50:36;99560.36;;;16.57;67.29
78841;BME280;68379;47.190;27.558;2023-08-08T02:53:05;99559.95;;;16.56;67.16
78841;BME280;68379;47.190;27.558;2023-08-08T02:55:36;99557.88;;;16.55;67.22
78841;BME280;68379;47.190;27.558;2023-08-08T02:58:06;99556.73;;;16.53;67.23
78841;BME280;68379;47.190;27.558;2023-08-08T03:00:35;99561.52;;;16.51;67.21
78841;BME280;68379;47.190;27.558;2023-08-08T03:03:04;99568.16;;;16.51;67.12
78841;BME280;68379;47.190;27.558;2023-08-08T03:05:34;99569.80;;;16.52;66.98
78841;BME280;68379;47.190;27.558;2023-08-08T03:08:04;99565.02;;;16.55;66.64
78841;BME280;68379;47.190;27.558;2023-08-08T03:10:33;99559.66;;;16.57;66.77
78841;BME280;68379;47.190;27.558;2023-08-08T03:13:02;99563.54;;;16.58;66.81
78841;BME280;68379;47.190;27.558;2023-08-08T03:15:31;99570.29;;;16.58;66.59
78841;BME280;68379;47.190;27.558;2023-08-08T03:18:01;99565.86;;;16.61;66.64
78841;BME280;68379;47.190;27.558;2023-08-08T03:20:30;99574.13;;;16.63;66.57
78841;BME280;68379;47.190;27.558;2023-08-08T03:22:59;99585.82;;;16.64;66.17
78841;BME280;68379;47.190;27.558;2023-08-08T03:25:29;99584.23;;;16.66;66.24
78841;BME280;68379;47.190;27.558;2023-08-08T03:27:58;99587.00;;;16.67;66.08
78841;BME280;68379;47.190;27.558;2023-08-08T03:30:27;99582.11;;;16.68;65.92
78841;BME280;68379;47.190;27.558;2023-08-08T03:32:57;99581.32;;;16.69;65.82
78841;BME280;68379;47.190;27.558;2023-08-08T03:35:26;99578.35;;;16.71;65.59
78841;BME280;68379;47.190;27.558;2023-08-08T03:37:55;99578.66;;;16.74;65.39
78841;BME280;68379;47.190;27.558;2023-08-08T03:40:24;99579.09;;;16.79;65.37
78841;BME280;68379;47.190;27.558;2023-08-08T03:42:54;99586.52;;;16.82;65.35
78841;BME280;68379;47.190;27.558;2023-08-08T03:45:23;99588.11;;;16.88;65.30
78841;BME280;68379;47.190;27.558;2023-08-08T03:47:53;99593.09;;;16.93;65.24
78841;BME280;68379;47.190;27.558;2023-08-08T03:50:22;99596.48;;;16.95;65.05
78841;BME280;68379;47.190;27.558;2023-08-08T03:52:51;99610.11;;;16.97;65.02
78841;BME280;68379;47.190;27.558;2023-08-08T03:55:21;99623.20;;;16.99;64.69
78841;BME280;68379;47.190;27.558;2023-08-08T03:57:50;99629.05;;;16.97;64.64
78841;BME280;68379;47.190;27.558;2023-08-08T04:00:20;99638.21;;;16.93;64.63
78841;BME280;68379;47.190;27.558;2023-08-08T04:02:49;99650.73;;;16.88;64.90
78841;BME280;68379;47.190;27.558;2023-08-08T04:05:19;99649.83;;;16.83;64.98
78841;BME280;68379;47.190;27.558;2023-08-08T04:07:48;99650.27;;;16.78;65.06
78841;BME280;68379;47.190;27.558;2023-08-08T04:10:17;99648.73;;;16.77;65.30
78841;BME280;68379;47.190;27.558;2023-08-08T04:12:46;99651.64;;;16.79;65.37
78841;BME280;68379;47.190;27.558;2023-08-08T04:15:15;99652.00;;;16.85;65.36
78841;BME280;68379;47.190;27.558;2023-08-08T04:17:44;99658.13;;;16.92;65.30
78841;BME280;68379;47.190;27.558;2023-08-08T04:20:13;99665.95;;;16.97;64.96
78841;BME280;68379;47.190;27.558;2023-08-08T04:22:42;99668.33;;;17.02;65.02
78841;BME280;68379;47.190;27.558;2023-08-08T04:25:11;99674.11;;;17.06;64.76
78841;BME280;68379;47.190;27.558;2023-08-08T04:27:40;99675.83;;;17.07;64.70
78841;BME280;68379;47.190;27.558;2023-08-08T04:30:10;99671.89;;;17.07;64.64
78841;BME280;68379;47.190;27.558;2023-08-08T04:32:39;99664.83;;;17.06;64.57
78841;BME280;68379;47.190;27.558;2023-08-08T04:35:09;99661.66;;;17.06;64.75
78841;BME280;68379;47.190;27.558;2023-08-08T04:37:38;99651.77;;;17.06;64.42
78841;BME280;68379;47.190;27.558;2023-08-08T04:40:09;99651.80;;;17.09;64.46
78841;BME280;68379;47.190;27.558;2023-08-08T04:42:39;99653.31;;;17.13;64.43
78841;BME280;68379;47.190;27.558;2023-08-08T04:45:10;99656.54;;;17.17;64.39
78841;BME280;68379;47.190;27.558;2023-08-08T04:47:39;99665.52;;;17.22;64.39
78841;BME280;68379;47.190;27.558;2023-08-08T04:50:09;99676.91;;;17.27;64.30
78841;BME280;68379;47.190;27.558;2023-08-08T04:52:38;99685.20;;;17.34;64.44
78841;BME280;68379;47.190;27.558;2023-08-08T04:55:09;99693.41;;;17.44;64.39
78841;BME280;68379;47.190;27.558;2023-08-08T04:57:38;99699.95;;;17.56;64.13
78841;BME280;68379;47.190;27.558;2023-08-08T05:00:08;99706.55;;;17.66;63.87
78841;BME280;68379;47.190;27.558;2023-08-08T05:02:37;99713.56;;;17.70;63.79
78841;BME280;68379;47.190;27.558;2023-08-08T05:05:08;99714.64;;;17.75;63.53
78841;BME280;68379;47.190;27.558;2023-08-08T05:07:38;99710.38;;;17.79;63.46
78841;BME280;68379;47.190;27.558;2023-08-08T05:10:07;99713.89;;;17.86;63.41
78841;BME280;68379;47.190;27.558;2023-08-08T05:12:37;99719.82;;;17.91;63.45
78841;BME280;68379;47.190;27.558;2023-08-08T05:15:08;99719.29;;;17.96;63.40
78841;BME280;68379;47.190;27.558;2023-08-08T05:17:37;99720.89;;;18.03;63.36
78841;BME280;68379;47.190;27.558;2023-08-08T05:20:09;99717.67;;;18.10;63.15
78841;BME280;68379;47.190;27.558;2023-08-08T05:22:38;99711.08;;;18.15;63.23
78841;BME280;68379;47.190;27.558;2023-08-08T05:25:09;99701.37;;;18.21;62.90
78841;BME280;68379;47.190;27.558;2023-08-08T05:27:38;99689.42;;;18.22;62.59
78841;BME280;68379;47.190;27.558;2023-08-08T05:30:09;99688.20;;;18.27;62.60
78841;BME280;68379;47.190;27.558;2023-08-08T05:32:38;99701.90;;;18.28;62.39
78841;BME280;68379;47.190;27.558;2023-08-08T05:35:09;99716.67;;;18.32;62.23
78841;BME280;68379;47.190;27.558;2023-08-08T05:37:38;99724.99;;;18.40;62.39
78841;BME280;68379;47.190;27.558;2023-08-08T05:40:09;99729.85;;;18.42;62.09
78841;BME280;68379;47.190;27.558;2023-08-08T05:42:38;99730.55;;;18.42;61.37
78841;BME280;68379;47.190;27.558;2023-08-08T05:45:09;99729.63;;;18.40;60.89
78841;BME280;68379;47.190;27.558;2023-08-08T05:47:38;99722.30;;;18.40;60.82
78841;BME280;68379;47.190;27.558;2023-08-08T05:50:09;99724.59;;;18.45;61.02
78841;BME280;68379;47.190;27.558;2023-08-08T05:52:38;99729.69;;;18.54;61.05
78841;BME280;68379;47.190;27.558;2023-08-08T05:55:08;99730.33;;;18.67;61.32
78841;BME280;68379;47.190;27.558;2023-08-08T05:57:37;99729.78;;;18.87;61.08
78841;BME280;68379;47.190;27.558;2023-08-08T06:00:09;99734.39;;;18.97;60.92
78841;BME280;68379;47.190;27.558;2023-08-08T06:02:39;99737.09;;;18.96;60.85
78841;BME280;68379;47.190;27.558;2023-08-08T06:05:10;99737.94;;;18.95;61.16
78841;BME280;68379;47.190;27.558;2023-08-08T06:07:39;99736.57;;;19.01;61.22
78841;BME280;68379;47.190;27.558;2023-08-08T06:10:09;99734.72;;;19.02;60.82
78841;BME280;68379;47.190;27.558;2023-08-08T06:12:38;99736.69;;;18.97;60.38
78841;BME280;68379;47.190;27.558;2023-08-08T06:15:09;99735.16;;;18.96;60.07
78841;BME280;68379;47.190;27.558;2023-08-08T06:17:38;99742.52;;;18.98;60.14
78841;BME280;68379;47.190;27.558;2023-08-08T06:20:08;99742.38;;;19.07;60.41
78841;BME280;68379;47.190;27.558;2023-08-08T06:22:38;99741.96;;;19.15;60.19
78841;BME280;68379;47.190;27.558;2023-08-08T06:25:08;99744.84;;;19.19;60.15
78841;BME280;68379;47.190;27.558;2023-08-08T06:27:39;99743.70;;;19.27;59.82
78841;BME280;68379;47.190;27.558;2023-08-08T06:30:09;99741.63;;;19.33;59.54
78841;BME280;68379;47.190;27.558;2023-08-08T06:32:41;99744.56;;;19.50;58.70
78841;BME280;68379;47.190;27.558;2023-08-08T06:35:11;99753.14;;;19.51;57.21
78841;BME280;68379;47.190;27.558;2023-08-08T06:37:40;99755.82;;;19.37;57.14
78841;BME280;68379;47.190;27.558;2023-08-08T06:40:12;99758.04;;;19.32;57.34
78841;BME280;68379;47.190;27.558;2023-08-08T06:42:41;99751.47;;;19.35;57.55
78841;BME280;68379;47.190;27.558;2023-08-08T06:45:11;99745.30;;;19.37;57.14
78841;BME280;68379;47.190;27.558;2023-08-08T06:47:39;99744.39;;;19.30;57.10
78841;BME280;68379;47.190;27.558;2023-08-08T06:50:10;99739.81;;;19.36;56.48
78841;BME280;68379;47.190;27.558;2023-08-08T06:52:39;99747.94;;;19.49;56.09
78841;BME280;68379;47.190;27.558;2023-08-08T06:55:10;99757.95;;;19.63;55.56
78841;BME280;68379;47.190;27.558;2023-08-08T06:57:39;99770.46;;;19.84;55.05
78841;BME280;68379;47.190;27.558;2023-08-08T07:00:11;99779.79;;;19.96;54.77
78841;BME280;68379;47.190;27.558;2023-08-08T07:02:41;99777.34;;;19.97;54.87
78841;BME280;68379;47.190;27.558;2023-08-08T07:05:10;99773.29;;;20.07;54.97
78841;BME280;68379;47.190;27.558;2023-08-08T07:07:39;99771.09;;;20.21;54.46
78841;BME280;68379;47.190;27.558;2023-08-08T07:10:09;99767.16;;;20.32;53.95
78841;BME280;68379;47.190;27.558;2023-08-08T07:12:39;99763.48;;;20.46;53.16
78841;BME280;68379;47.190;27.558;2023-08-08T07:15:10;99768.35;;;20.51;53.87
78841;BME280;68379;47.190;27.558;2023-08-08T07:17:40;99767.84;;;20.50;53.45
78841;BME280;68379;47.190;27.558;2023-08-08T07:20:10;99768.89;;;20.53;53.45
78841;BME280;68379;47.190;27.558;2023-08-08T07:22:41;99785.42;;;20.70;53.67
78841;BME280;68379;47.190;27.558;2023-08-08T07:25:10;99796.88;;;21.01;52.62
78841;BME280;68379;47.190;27.558;2023-08-08T07:27:39;99799.30;;;21.15;52.49
78841;BME280;68379;47.190;27.558;2023-08-08T07:30:10;99796.82;;;21.26;52.23
78841;BME280;68379;47.190;27.558;2023-08-08T07:32:39;99803.27;;;21.30;52.27
78841;BME280;68379;47.190;27.558;2023-08-08T07:35:09;99806.05;;;21.46;52.62
78841;BME280;68379;47.190;27.558;2023-08-08T07:37:39;99802.08;;;21.61;52.21
78841;BME280;68379;47.190;27.558;2023-08-08T07:40:15;99805.63;;;21.62;50.77
78841;BME280;68379;47.190;27.558;2023-08-08T07:42:46;99805.05;;;21.51;50.84
78841;BME280;68379;47.190;27.558;2023-08-08T07:45:16;99808.06;;;21.61;51.13
78841;BME280;68379;47.190;27.558;2023-08-08T07:47:45;99813.96;;;21.67;49.77
78841;BME280;68379;47.190;27.558;2023-08-08T07:50:14;99814.88;;;21.65;49.43
78841;BME280;68379;47.190;27.558;2023-08-08T07:52:43;99814.17;;;21.67;49.45
78841;BME280;68379;47.190;27.558;2023-08-08T07:55:12;99812.80;;;21.73;49.71
78841;BME280;68379;47.190;27.558;2023-08-08T07:57:41;99817.70;;;21.72;49.73
78841;BME280;68379;47.190;27.558;2023-08-08T08:00:13;99816.23;;;21.70;49.83
78841;BME280;68379;47.190;27.558;2023-08-08T08:02:44;99816.61;;;21.66;49.92
78841;BME280;68379;47.190;27.558;2023-08-08T08:05:14;99813.13;;;21.67;49.66
78841;BME280;68379;47.190;27.558;2023-08-08T08:07:44;99810.38;;;21.59;49.10
78841;BME280;68379;47.190;27.558;2023-08-08T08:10:13;99807.33;;;21.52;48.94
78841;BME280;68379;47.190;27.558;2023-08-08T08:12:42;99806.69;;;21.53;49.04
78841;BME280;68379;47.190;27.558;2023-08-08T08:15:13;99803.35;;;21.69;49.49
78841;BME280;68379;47.190;27.558;2023-08-08T08:17:42;99806.48;;;21.75;48.91
78841;BME280;68379;47.190;27.558;2023-08-08T08:20:12;99799.55;;;21.61;47.57
78841;BME280;68379;47.190;27.558;2023-08-08T08:22:40;99796.25;;;21.51;47.52
78841;BME280;68379;47.190;27.558;2023-08-08T08:25:09;99794.52;;;21.46;47.32
78841;BME280;68379;47.190;27.558;2023-08-08T08:27:39;99781.06;;;21.46;48.10
78841;BME280;68379;47.190;27.558;2023-08-08T08:30:10;99773.77;;;21.51;48.56
78841;BME280;68379;47.190;27.558;2023-08-08T08:32:40;99775.14;;;21.48;47.97
78841;BME280;68379;47.190;27.558;2023-08-08T08:35:10;99778.48;;;21.47;48.05
78841;BME280;68379;47.190;27.558;2023-08-08T08:37:41;99789.98;;;21.47;48.27
78841;BME280;68379;47.190;27.558;2023-08-08T08:40:11;99793.85;;;21.46;48.34
78841;BME280;68379;47.190;27.558;2023-08-08T08:42:41;99795.69;;;21.39;48.65
78841;BME280;68379;47.190;27.558;2023-08-08T08:45:12;99794.38;;;21.25;49.01
78841;BME280;68379;47.190;27.558;2023-08-08T08:47:42;99795.38;;;21.21;49.29
78841;BME280;68379;47.190;27.558;2023-08-08T08:50:16;99801.26;;;21.22;49.23
78841;BME280;68379;47.190;27.558;2023-08-08T08:52:46;99802.90;;;21.26;49.53
78841;BME280;68379;47.190;27.558;2023-08-08T08:55:15;99808.78;;;21.35;49.29
78841;BME280;68379;47.190;27.558;2023-08-08T08:57:45;99809.50;;;21.50;49.29
78841;BME280;68379;47.190;27.558;2023-08-08T09:00:15;99807.88;;;21.71;49.10
78841;BME280;68379;47.190;27.558;2023-08-08T09:02:45;99805.20;;;21.98;49.07
78841;BME280;68379;47.190;27.558;2023-08-08T09:05:16;99804.65;;;22.33;48.85
78841;BME280;68379;47.190;27.558;2023-08-08T09:07:49;99812.91;;;22.47;48.86
78841;BME280;68379;47.190;27.558;2023-08-08T09:10:19;99817.65;;;22.53;48.32
78841;BME280;68379;47.190;27.558;2023-08-08T09:12:48;99815.31;;;22.45;48.36
78841;BME280;68379;47.190;27.558;2023-08-08T09:15:18;99813.80;;;22.41;48.01
78841;BME280;68379;47.190;27.558;2023-08-08T09:17:47;99812.65;;;22.44;47.99
78841;BME280;68379;47.190;27.558;2023-08-08T09:20:17;99814.16;;;22.49;48.28
78841;BME280;68379;47.190;27.558;2023-08-08T09:22:46;99814.45;;;22.50;47.78
78841;BME280;68379;47.190;27.558;2023-08-08T09:25:16;99817.45;;;22.45;46.86
78841;BME280;68379;47.190;27.558;2023-08-08T09:27:45;99826.84;;;22.40;46.90
78841;BME280;68379;47.190;27.558;2023-08-08T09:30:16;99833.40;;;22.39;46.61
78841;BME280;68379;47.190;27.558;2023-08-08T09:32:44;99834.69;;;22.39;46.19
78841;BME280;68379;47.190;27.558;2023-08-08T09:35:13;99825.55;;;22.42;46.41
78841;BME280;68379;47.190;27.558;2023-08-08T09:37:43;99828.69;;;22.46;46.33
78841;BME280;68379;47.190;27.558;2023-08-08T09:40:12;99834.04;;;22.50;46.46
78841;BME280;68379;47.190;27.558;2023-08-08T09:42:41;99831.98;;;22.55;46.39
78841;BME280;68379;47.190;27.558;2023-08-08T09:45:11;99831.21;;;22.66;46.50
78841;BME280;68379;47.190;27.558;2023-08-08T09:47:40;99828.50;;;22.72;46.23
78841;BME280;68379;47.190;27.558;2023-08-08T09:50:10;99835.25;;;22.73;44.80
78841;BME280;68379;47.190;27.558;2023-08-08T09:52:39;99833.42;;;22.59;44.84
78841;BME280;68379;47.190;27.558;2023-08-08T09:55:09;99841.61;;;22.44;44.80
78841;BME280;68379;47.190;27.558;2023-08-08T09:57:40;99840.48;;;22.39;44.74
78841;BME280;68379;47.190;27.558;2023-08-08T10:00:11;99835.64;;;22.42;44.19
78841;BME280;68379;47.190;27.558;2023-08-08T10:02:45;99836.48;;;22.49;44.20
78841;BME280;68379;47.190;27.558;2023-08-08T10:05:15;99838.65;;;22.52;44.19
78841;BME280;68379;47.190;27.558;2023-08-08T10:07:44;99839.96;;;22.53;44.29
78841;BME280;68379;47.190;27.558;2023-08-08T10:10:14;99839.37;;;22.63;44.79
78841;BME280;68379;47.190;27.558;2023-08-08T10:12:43;99839.89;;;22.66;44.49
78841;BME280;68379;47.190;27.558;2023-08-08T10:15:12;99836.02;;;22.65;44.92
78841;BME280;68379;47.190;27.558;2023-08-08T10:17:42;99832.55;;;22.75;44.70
78841;BME280;68379;47.190;27.558;2023-08-08T10:20:12;99831.80;;;22.75;44.34
78841;BME280;68379;47.190;27.558;2023-08-08T10:22:44;99833.73;;;22.84;44.08
78841;BME280;68379;47.190;27.558;2023-08-08T10:25:24;99837.05;;;22.93;44.00
78841;BME280;68379;47.190;27.558;2023-08-08T10:28:05;99837.02;;;22.95;44.05
78841;BME280;68379;47.190;27.558;2023-08-08T10:30:45;99837.66;;;23.02;44.15
78841;BME280;68379;47.190;27.558;2023-08-08T10:33:19;99835.20;;;23.06;44.26
78841;BME280;68379;47.190;27.558;2023-08-08T10:36:06;99834.27;;;23.00;44.21
78841;BME280;68379;47.190;27.558;2023-08-08T10:38:43;99836.94;;;23.00;44.07
78841;BME280;68379;47.190;27.558;2023-08-08T10:41:13;99839.55;;;23.07;43.69
78841;BME280;68379;47.190;27.558;2023-08-08T10:43:49;99835.38;;;23.00;43.52
78841;BME280;68379;47.190;27.558;2023-08-08T10:46:25;99829.16;;;22.95;43.99
78841;BME280;68379;47.190;27.558;2023-08-08T10:48:56;99827.38;;;22.99;43.64
78841;BME280;68379;47.190;27.558;2023-08-08T10:51:35;99827.63;;;22.94;43.62
78841;BME280;68379;47.190;27.558;2023-08-08T10:54:23;99830.42;;;22.93;43.39
78841;BME280;68379;47.190;27.558;2023-08-08T10:56:58;99827.64;;;22.69;43.44
78841;BME280;68379;47.190;27.558;2023-08-08T10:59:35;99818.98;;;22.62;43.50
78841;BME280;68379;47.190;27.558;2023-08-08T11:02:05;99824.92;;;22.66;43.56
78841;BME280;68379;47.190;27.558;2023-08-08T11:04:36;99829.29;;;22.61;43.67
78841;BME280;68379;47.190;27.558;2023-08-08T11:07:06;99832.96;;;22.64;43.61
78841;BME280;68379;47.190;27.558;2023-08-08T11:09:37;99841.00;;;22.77;43.14
78841;BME280;68379;47.190;27.558;2023-08-08T11:12:12;99843.55;;;22.81;43.38
78841;BME280;68379;47.190;27.558;2023-08-08T11:14:41;99840.38;;;22.82;43.61
78841;BME280;68379;47.190;27.558;2023-08-08T11:17:12;99837.33;;;22.96;43.82
78841;BME280;68379;47.190;27.558;2023-08-08T11:19:42;99838.48;;;23.15;43.54
78841;BME280;68379;47.190;27.558;2023-08-08T11:22:11;99839.83;;;23.36;43.30
78841;BME280;68379;47.190;27.558;2023-08-08T11:24:40;99835.05;;;23.48;42.99
78841;BME280;68379;47.190;27.558;2023-08-08T11:27:09;99841.77;;;23.46;42.85
78841;BME280;68379;47.190;27.558;2023-08-08T11:29:39;99840.52;;;23.32;42.72
78841;BME280;68379;47.190;27.558;2023-08-08T11:32:09;99843.65;;;23.30;42.68
78841;BME280;68379;47.190;27.558;2023-08-08T11:34:39;99842.28;;;23.17;42.45
78841;BME280;68379;47.190;27.558;2023-08-08T11:37:08;99839.73;;;23.02;42.66
78841;BME280;68379;47.190;27.558;2023-08-08T11:39:39;99837.39;;;22.85;42.39
78841;BME280;68379;47.190;27.558;2023-08-08T11:42:09;99833.50;;;22.80;42.56
78841;BME280;68379;47.190;27.558;2023-08-08T11:44:39;99830.14;;;22.92;42.33
78841;BME280;68379;47.190;27.558;2023-08-08T11:47:08;99828.73;;;23.06;42.47
78841;BME280;68379;47.190;27.558;2023-08-08T11:49:42;99829.30;;;23.21;42.66
78841;BME280;68379;47.190;27.558;2023-08-08T11:52:11;99825.29;;;23.45;42.38
78841;BME280;68379;47.190;27.558;2023-08-08T11:54:42;99827.66;;;23.66;42.17
78841;BME280;68379;47.190;27.558;2023-08-08T11:57:11;99832.19;;;23.75;41.67
78841;BME280;68379;47.190;27.558;2023-08-08T11:59:41;99829.52;;;23.67;41.44
78841;BME280;68379;47.190;27.558;2023-08-08T12:02:11;99828.09;;;23.53;41.25
78841;BME280;68379;47.190;27.558;2023-08-08T12:04:44;99823.21;;;23.57;40.93
78841;BME280;68379;47.190;27.558;2023-08-08T12:07:14;99820.93;;;23.76;40.99
78841;BME280;68379;47.190;27.558;2023-08-08T12:09:43;99823.34;;;24.00;40.56
78841;BME280;68379;47.190;27.558;2023-08-08T12:12:12;99824.99;;;24.05;39.85
78841;BME280;68379;47.190;27.558;2023-08-08T12:14:44;99826.84;;;24.18;39.76
78841;BME280;68379;47.190;27.558;2023-08-08T12:17:13;99821.45;;;24.29;38.95
78841;BME280;68379;47.190;27.558;2023-08-08T12:19:46;99819.36;;;24.54;38.89
78841;BME280;68379;47.190;27.558;2023-08-08T12:22:15;99816.80;;;24.80;38.64
78841;BME280;68379;47.190;27.558;2023-08-08T12:24:45;99817.60;;;25.10;38.09
78841;BME280;68379;47.190;27.558;2023-08-08T12:27:14;99817.69;;;25.26;37.56
78841;BME280;68379;47.190;27.558;2023-08-08T12:29:43;99816.48;;;25.57;37.58
78841;BME280;68379;47.190;27.558;2023-08-08T12:32:13;99813.27;;;26.01;37.79
78841;BME280;68379;47.190;27.558;2023-08-08T12:34:42;99812.84;;;26.22;35.86
78841;BME280;68379;47.190;27.558;2023-08-08T12:37:11;99808.36;;;26.32;36.28
78841;BME280;68379;47.190;27.558;2023-08-08T12:39:40;99807.06;;;26.70;36.53
78841;BME280;68379;47.190;27.558;2023-08-08T12:42:09;99805.64;;;26.81;36.08
78841;BME280;68379;47.190;27.558;2023-08-08T12:44:38;99803.65;;;26.75;36.33
78841;BME280;68379;47.190;27.558;2023-08-08T12:47:08;99803.10;;;26.66;34.84
78841;BME280;68379;47.190;27.558;2023-08-08T12:49:37;99801.63;;;26.31;35.65
78841;BME280;68379;47.190;27.558;2023-08-08T12:52:07;99799.82;;;26.35;35.81
78841;BME280;68379;47.190;27.558;2023-08-08T12:54:36;99793.70;;;26.37;35.84
78841;BME280;68379;47.190;27.558;2023-08-08T12:57:05;99791.13;;;26.37;35.78
78841;BME280;68379;47.190;27.558;2023-08-08T12:59:34;99791.21;;;26.12;35.41
78841;BME280;68379;47.190;27.558;2023-08-08T13:02:04;99787.66;;;25.80;35.18
78841;BME280;68379;47.190;27.558;2023-08-08T13:04:33;99788.73;;;25.60;35.31